sensor_id;sensor_type;location;lat;lon;timestamp;P1;durP1;ratioP1;P2;durP2;ratioP2
14080;SDS011;7116;52.152;5.392;2022-10-31T00:01:58;8.45;;;4.82;;
14080;SDS011;7116;52.152;5.392;2022-10-31T00:04:24;10.67;;;4.60;;
14080;SDS011;7116;52.152;5.392;2022-10-31T00:06:49;8.03;;;4.67;;
14080;SDS011;7116;52.152;5.392;2022-10-31T00:09:14;10.47;;;4.90;;
14080;SDS011;7116;52.152;5.392;2022-10-31T00:11:39;10.50;;;5.67;;
14080;SDS011;7116;52.152;5.392;2022-10-31T00:14:04;10.95;;;4.85;;
14080;SDS011;7116;52.152;5.392;2022-10-31T00:16:30;9.33;;;5.77;;
14080;SDS011;7116;52.152;5.392;2022-10-31T00:18:56;11.80;;;5.87;;
14080;SDS011;7116;52.152;5.392;2022-10-31T00:21:22;8.43;;;4.68;;
14080;SDS011;7116;52.152;5.392;2022-10-31T00:23:48;12.13;;;5.65;;
14080;SDS011;7116;52.152;5.392;2022-10-31T00:26:13;10.43;;;5.77;;
14080;SDS011;7116;52.152;5.392;2022-10-31T00:28:38;13.17;;;6.00;;
14080;SDS011;7116;52.152;5.392;2022-10-31T00:31:06;11.03;;;5.80;;
14080;SDS011;7116;52.152;5.392;2022-10-31T00:33:32;10.20;;;5.50;;
14080;SDS011;7116;52.152;5.392;2022-10-31T00:35:58;11.43;;;5.53;;
14080;SDS011;7116;52.152;5.392;2022-10-31T00:38:23;11.23;;;5.40;;
14080;SDS011;7116;52.152;5.392;2022-10-31T00:40:48;10.50;;;5.83;;
14080;SDS011;7116;52.152;5.392;2022-10-31T00:43:13;11.57;;;6.10;;
14080;SDS011;7116;52.152;5.392;2022-10-31T00:45:39;12.60;;;5.63;;
14080;SDS011;7116;52.152;5.392;2022-10-31T00:48:04;8.75;;;6.10;;
14080;SDS011;7116;52.152;5.392;2022-10-31T00:50:29;12.33;;;6.13;;
14080;SDS011;7116;52.152;5.392;2022-10-31T00:52:55;9.90;;;5.83;;
14080;SDS011;7116;52.152;5.392;2022-10-31T00:55:20;10.87;;;5.37;;
14080;SDS011;7116;52.152;5.392;2022-10-31T00:57:48;12.50;;;5.97;;
14080;SDS011;7116;52.152;5.392;2022-10-31T01:00:13;10.02;;;6.63;;
14080;SDS011;7116;52.152;5.392;2022-10-31T01:02:39;14.30;;;5.73;;
14080;SDS011;7116;52.152;5.392;2022-10-31T01:05:04;11.40;;;6.20;;
14080;SDS011;7116;52.152;5.392;2022-10-31T01:07:29;10.27;;;6.00;;
14080;SDS011;7116;52.152;5.392;2022-10-31T01:09:54;10.77;;;5.67;;
14080;SDS011;7116;52.152;5.392;2022-10-31T01:12:20;11.93;;;5.83;;
14080;SDS011;7116;52.152;5.392;2022-10-31T01:14:45;10.53;;;5.83;;
14080;SDS011;7116;52.152;5.392;2022-10-31T01:17:10;12.87;;;5.67;;
14080;SDS011;7116;52.152;5.392;2022-10-31T01:19:36;12.47;;;6.00;;
14080;SDS011;7116;52.152;5.392;2022-10-31T01:22:01;13.00;;;6.40;;
14080;SDS011;7116;52.152;5.392;2022-10-31T01:24:26;11.33;;;5.83;;
14080;SDS011;7116;52.152;5.392;2022-10-31T01:26:51;10.17;;;5.70;;
14080;SDS011;7116;52.152;5.392;2022-10-31T01:29:16;10.60;;;5.97;;
14080;SDS011;7116;52.152;5.392;2022-10-31T01:31:41;11.10;;;5.40;;
14080;SDS011;7116;52.152;5.392;2022-10-31T01:34:07;10.17;;;6.43;;
14080;SDS011;7116;52.152;5.392;2022-10-31T01:36:33;8.50;;;5.75;;
14080;SDS011;7116;52.152;5.392;2022-10-31T01:38:59;9.33;;;6.00;;
14080;SDS011;7116;52.152;5.392;2022-10-31T01:41:28;13.43;;;5.60;;
14080;SDS011;7116;52.152;5.392;2022-10-31T01:43:54;11.05;;;5.13;;
14080;SDS011;7116;52.152;5.392;2022-10-31T01:46:22;10.45;;;5.25;;
14080;SDS011;7116;52.152;5.392;2022-10-31T01:48:49;8.18;;;6.03;;
14080;SDS011;7116;52.152;5.392;2022-10-31T01:51:14;11.10;;;5.90;;
14080;SDS011;7116;52.152;5.392;2022-10-31T01:53:42;13.32;;;5.00;;
14080;SDS011;7116;52.152;5.392;2022-10-31T01:56:09;10.50;;;5.88;;
14080;SDS011;7116;52.152;5.392;2022-10-31T01:58:34;9.00;;;5.50;;
14080;SDS011;7116;52.152;5.392;2022-10-31T02:01:00;8.60;;;4.73;;
14080;SDS011;7116;52.152;5.392;2022-10-31T02:03:26;9.55;;;5.53;;
14080;SDS011;7116;52.152;5.392;2022-10-31T02:05:53;10.15;;;5.18;;
14080;SDS011;7116;52.152;5.392;2022-10-31T02:10:44;8.80;;;4.80;;
14080;SDS011;7116;52.152;5.392;2022-10-31T02:13:10;10.57;;;5.13;;
14080;SDS011;7116;52.152;5.392;2022-10-31T02:15:36;7.37;;;4.97;;
14080;SDS011;7116;52.152;5.392;2022-10-31T02:18:02;10.85;;;4.72;;
14080;SDS011;7116;52.152;5.392;2022-10-31T02:20:31;13.68;;;5.82;;
14080;SDS011;7116;52.152;5.392;2022-10-31T02:25:51;10.00;;;5.97;;
14080;SDS011;7116;52.152;5.392;2022-10-31T02:36:09;8.90;;;5.75;;
14080;SDS011;7116;52.152;5.392;2022-10-31T02:43:32;14.10;;;5.93;;
14080;SDS011;7116;52.152;5.392;2022-10-31T02:46:03;13.98;;;5.68;;
14080;SDS011;7116;52.152;5.392;2022-10-31T02:48:32;10.23;;;5.25;;
14080;SDS011;7116;52.152;5.392;2022-10-31T02:51:00;6.50;;;5.20;;
14080;SDS011;7116;52.152;5.392;2022-10-31T02:53:26;7.87;;;5.10;;
14080;SDS011;7116;52.152;5.392;2022-10-31T02:56:02;8.35;;;5.10;;
14080;SDS011;7116;52.152;5.392;2022-10-31T02:58:30;8.87;;;5.13;;
14080;SDS011;7116;52.152;5.392;2022-10-31T03:01:03;10.85;;;5.75;;
14080;SDS011;7116;52.152;5.392;2022-10-31T03:11:18;8.30;;;5.87;;
14080;SDS011;7116;52.152;5.392;2022-10-31T03:13:48;7.65;;;5.68;;
14080;SDS011;7116;52.152;5.392;2022-10-31T03:16:15;8.80;;;6.18;;
14080;SDS011;7116;52.152;5.392;2022-10-31T03:18:52;7.63;;;5.95;;
14080;SDS011;7116;52.152;5.392;2022-10-31T03:21:22;8.88;;;5.90;;
14080;SDS011;7116;52.152;5.392;2022-10-31T03:23:48;8.90;;;5.97;;
14080;SDS011;7116;52.152;5.392;2022-10-31T03:26:15;10.05;;;6.35;;
14080;SDS011;7116;52.152;5.392;2022-10-31T03:28:43;8.23;;;5.90;;
14080;SDS011;7116;52.152;5.392;2022-10-31T03:31:09;11.52;;;6.43;;
14080;SDS011;7116;52.152;5.392;2022-10-31T03:33:38;9.73;;;6.23;;
14080;SDS011;7116;52.152;5.392;2022-10-31T03:36:05;8.75;;;5.72;;
14080;SDS011;7116;52.152;5.392;2022-10-31T03:38:33;8.77;;;5.30;;
14080;SDS011;7116;52.152;5.392;2022-10-31T03:41:00;10.27;;;5.63;;
14080;SDS011;7116;52.152;5.392;2022-10-31T03:43:30;8.38;;;4.82;;
14080;SDS011;7116;52.152;5.392;2022-10-31T03:45:56;9.37;;;5.90;;
14080;SDS011;7116;52.152;5.392;2022-10-31T03:48:22;7.55;;;5.90;;
14080;SDS011;7116;52.152;5.392;2022-10-31T03:53:33;9.55;;;5.68;;
14080;SDS011;7116;52.152;5.392;2022-10-31T03:56:11;8.15;;;5.55;;
14080;SDS011;7116;52.152;5.392;2022-10-31T03:58:39;10.05;;;6.10;;
14080;SDS011;7116;52.152;5.392;2022-10-31T04:01:06;7.00;;;5.43;;
14080;SDS011;7116;52.152;5.392;2022-10-31T04:03:34;8.50;;;5.27;;
14080;SDS011;7116;52.152;5.392;2022-10-31T04:06:02;7.07;;;5.50;;
14080;SDS011;7116;52.152;5.392;2022-10-31T04:08:30;8.55;;;5.53;;
14080;SDS011;7116;52.152;5.392;2022-10-31T04:10:56;11.18;;;5.93;;
14080;SDS011;7116;52.152;5.392;2022-10-31T04:13:24;6.00;;;4.43;;
14080;SDS011;7116;52.152;5.392;2022-10-31T04:15:51;8.43;;;5.73;;
14080;SDS011;7116;52.152;5.392;2022-10-31T04:18:17;10.38;;;5.22;;
14080;SDS011;7116;52.152;5.392;2022-10-31T04:20:42;10.90;;;5.43;;
14080;SDS011;7116;52.152;5.392;2022-10-31T04:23:18;8.50;;;4.93;;
14080;SDS011;7116;52.152;5.392;2022-10-31T04:25:44;9.82;;;6.10;;
14080;SDS011;7116;52.152;5.392;2022-10-31T04:28:09;8.60;;;5.17;;
14080;SDS011;7116;52.152;5.392;2022-10-31T04:30:34;10.40;;;5.33;;
14080;SDS011;7116;52.152;5.392;2022-10-31T04:32:59;8.53;;;4.97;;
14080;SDS011;7116;52.152;5.392;2022-10-31T04:35:24;9.15;;;5.03;;
14080;SDS011;7116;52.152;5.392;2022-10-31T04:37:50;7.50;;;5.53;;
14080;SDS011;7116;52.152;5.392;2022-10-31T04:40:15;10.30;;;5.73;;
14080;SDS011;7116;52.152;5.392;2022-10-31T04:42:40;11.15;;;5.10;;
14080;SDS011;7116;52.152;5.392;2022-10-31T04:45:05;9.35;;;5.45;;
14080;SDS011;7116;52.152;5.392;2022-10-31T04:47:31;8.07;;;5.07;;
14080;SDS011;7116;52.152;5.392;2022-10-31T04:49:57;7.63;;;5.75;;
14080;SDS011;7116;52.152;5.392;2022-10-31T04:52:22;10.70;;;5.90;;
14080;SDS011;7116;52.152;5.392;2022-10-31T04:54:47;8.37;;;5.93;;
14080;SDS011;7116;52.152;5.392;2022-10-31T04:57:13;6.85;;;5.40;;
14080;SDS011;7116;52.152;5.392;2022-10-31T04:59:38;7.70;;;5.80;;
14080;SDS011;7116;52.152;5.392;2022-10-31T05:02:03;7.10;;;5.50;;
14080;SDS011;7116;52.152;5.392;2022-10-31T05:04:28;8.17;;;5.10;;
14080;SDS011;7116;52.152;5.392;2022-10-31T05:06:53;8.87;;;6.20;;
14080;SDS011;7116;52.152;5.392;2022-10-31T05:09:21;9.17;;;4.93;;
14080;SDS011;7116;52.152;5.392;2022-10-31T05:11:47;8.95;;;5.47;;
14080;SDS011;7116;52.152;5.392;2022-10-31T05:14:12;9.27;;;4.80;;
14080;SDS011;7116;52.152;5.392;2022-10-31T05:16:37;9.40;;;5.67;;
14080;SDS011;7116;52.152;5.392;2022-10-31T05:19:02;8.13;;;5.03;;
14080;SDS011;7116;52.152;5.392;2022-10-31T05:21:27;10.00;;;6.23;;
14080;SDS011;7116;52.152;5.392;2022-10-31T05:23:52;7.83;;;5.77;;
14080;SDS011;7116;52.152;5.392;2022-10-31T05:26:18;8.60;;;5.73;;
14080;SDS011;7116;52.152;5.392;2022-10-31T05:28:43;10.10;;;5.70;;
14080;SDS011;7116;52.152;5.392;2022-10-31T05:31:08;7.70;;;5.30;;
14080;SDS011;7116;52.152;5.392;2022-10-31T05:33:33;7.80;;;5.30;;
14080;SDS011;7116;52.152;5.392;2022-10-31T05:35:58;9.70;;;6.03;;
14080;SDS011;7116;52.152;5.392;2022-10-31T05:38:23;8.47;;;6.03;;
14080;SDS011;7116;52.152;5.392;2022-10-31T05:40:49;17.43;;;7.17;;
14080;SDS011;7116;52.152;5.392;2022-10-31T05:43:14;17.77;;;6.23;;
14080;SDS011;7116;52.152;5.392;2022-10-31T05:45:39;10.17;;;6.10;;
14080;SDS011;7116;52.152;5.392;2022-10-31T05:48:04;11.73;;;6.47;;
14080;SDS011;7116;52.152;5.392;2022-10-31T05:50:30;26.17;;;7.43;;
14080;SDS011;7116;52.152;5.392;2022-10-31T05:53:03;30.55;;;7.78;;
14080;SDS011;7116;52.152;5.392;2022-10-31T05:55:28;24.80;;;8.10;;
14080;SDS011;7116;52.152;5.392;2022-10-31T05:57:54;18.00;;;7.80;;
14080;SDS011;7116;52.152;5.392;2022-10-31T06:00:19;21.20;;;8.40;;
14080;SDS011;7116;52.152;5.392;2022-10-31T06:02:45;24.23;;;7.50;;
14080;SDS011;7116;52.152;5.392;2022-10-31T06:05:10;19.40;;;7.93;;
14080;SDS011;7116;52.152;5.392;2022-10-31T06:07:38;29.03;;;9.03;;
14080;SDS011;7116;52.152;5.392;2022-10-31T06:10:04;23.08;;;9.05;;
14080;SDS011;7116;52.152;5.392;2022-10-31T06:12:29;32.97;;;9.88;;
14080;SDS011;7116;52.152;5.392;2022-10-31T06:14:55;26.03;;;9.23;;
14080;SDS011;7116;52.152;5.392;2022-10-31T06:17:20;37.87;;;9.50;;
14080;SDS011;7116;52.152;5.392;2022-10-31T06:19:45;39.63;;;9.50;;
14080;SDS011;7116;52.152;5.392;2022-10-31T06:22:10;37.60;;;9.50;;
14080;SDS011;7116;52.152;5.392;2022-10-31T06:24:36;29.57;;;8.00;;
14080;SDS011;7116;52.152;5.392;2022-10-31T06:27:01;28.05;;;7.30;;
14080;SDS011;7116;52.152;5.392;2022-10-31T06:29:27;40.27;;;7.33;;
14080;SDS011;7116;52.152;5.392;2022-10-31T06:31:52;37.25;;;7.85;;
14080;SDS011;7116;52.152;5.392;2022-10-31T06:34:17;34.40;;;6.30;;
14080;SDS011;7116;52.152;5.392;2022-10-31T06:36:42;18.93;;;6.73;;
14080;SDS011;7116;52.152;5.392;2022-10-31T06:39:07;22.33;;;6.30;;
14080;SDS011;7116;52.152;5.392;2022-10-31T06:41:33;37.43;;;7.07;;
14080;SDS011;7116;52.152;5.392;2022-10-31T06:43:58;31.77;;;8.10;;
14080;SDS011;7116;52.152;5.392;2022-10-31T06:46:23;27.53;;;8.13;;
14080;SDS011;7116;52.152;5.392;2022-10-31T06:48:48;19.70;;;7.50;;
14080;SDS011;7116;52.152;5.392;2022-10-31T06:51:13;22.50;;;6.50;;
14080;SDS011;7116;52.152;5.392;2022-10-31T06:53:38;25.90;;;7.43;;
14080;SDS011;7116;52.152;5.392;2022-10-31T06:56:06;14.77;;;6.70;;
14080;SDS011;7116;52.152;5.392;2022-10-31T06:58:31;23.07;;;7.63;;
14080;SDS011;7116;52.152;5.392;2022-10-31T07:00:58;23.73;;;6.57;;
14080;SDS011;7116;52.152;5.392;2022-10-31T07:03:24;13.38;;;6.47;;
14080;SDS011;7116;52.152;5.392;2022-10-31T07:05:49;17.43;;;6.83;;
14080;SDS011;7116;52.152;5.392;2022-10-31T07:08:14;9.23;;;6.30;;
14080;SDS011;7116;52.152;5.392;2022-10-31T07:10:40;13.63;;;6.03;;
14080;SDS011;7116;52.152;5.392;2022-10-31T07:13:06;15.52;;;6.45;;
14080;SDS011;7116;52.152;5.392;2022-10-31T07:15:35;24.52;;;7.28;;
14080;SDS011;7116;52.152;5.392;2022-10-31T07:18:01;8.40;;;5.90;;
14080;SDS011;7116;52.152;5.392;2022-10-31T07:20:27;16.35;;;6.25;;
14080;SDS011;7116;52.152;5.392;2022-10-31T07:22:52;28.47;;;7.20;;
14080;SDS011;7116;52.152;5.392;2022-10-31T07:25:17;12.40;;;6.30;;
14080;SDS011;7116;52.152;5.392;2022-10-31T07:27:43;9.15;;;6.05;;
14080;SDS011;7116;52.152;5.392;2022-10-31T07:30:09;9.50;;;5.63;;
14080;SDS011;7116;52.152;5.392;2022-10-31T07:32:38;15.03;;;5.73;;
14080;SDS011;7116;52.152;5.392;2022-10-31T07:35:03;12.10;;;5.80;;
14080;SDS011;7116;52.152;5.392;2022-10-31T07:37:29;9.33;;;6.20;;
14080;SDS011;7116;52.152;5.392;2022-10-31T07:39:54;11.27;;;6.40;;
14080;SDS011;7116;52.152;5.392;2022-10-31T07:42:19;8.87;;;5.90;;
14080;SDS011;7116;52.152;5.392;2022-10-31T07:44:44;9.60;;;6.37;;
14080;SDS011;7116;52.152;5.392;2022-10-31T07:47:09;25.07;;;6.20;;
14080;SDS011;7116;52.152;5.392;2022-10-31T07:49:34;15.37;;;5.57;;
14080;SDS011;7116;52.152;5.392;2022-10-31T07:52:00;8.07;;;6.00;;
14080;SDS011;7116;52.152;5.392;2022-10-31T07:54:25;11.50;;;6.07;;
14080;SDS011;7116;52.152;5.392;2022-10-31T07:56:50;7.40;;;6.13;;
14080;SDS011;7116;52.152;5.392;2022-10-31T07:59:15;12.63;;;5.97;;
14080;SDS011;7116;52.152;5.392;2022-10-31T08:01:40;16.87;;;6.23;;
14080;SDS011;7116;52.152;5.392;2022-10-31T08:04:06;17.03;;;6.23;;
14080;SDS011;7116;52.152;5.392;2022-10-31T08:06:31;8.70;;;6.17;;
14080;SDS011;7116;52.152;5.392;2022-10-31T08:08:56;15.07;;;7.27;;
14080;SDS011;7116;52.152;5.392;2022-10-31T08:11:21;12.03;;;5.83;;
14080;SDS011;7116;52.152;5.392;2022-10-31T08:13:46;15.20;;;6.70;;
14080;SDS011;7116;52.152;5.392;2022-10-31T08:16:11;8.17;;;6.13;;
14080;SDS011;7116;52.152;5.392;2022-10-31T08:18:37;8.47;;;6.47;;
14080;SDS011;7116;52.152;5.392;2022-10-31T08:21:03;9.68;;;6.70;;
14080;SDS011;7116;52.152;5.392;2022-10-31T08:23:28;9.30;;;6.90;;
14080;SDS011;7116;52.152;5.392;2022-10-31T08:25:53;8.90;;;6.87;;
14080;SDS011;7116;52.152;5.392;2022-10-31T08:28:18;8.27;;;6.87;;
14080;SDS011;7116;52.152;5.392;2022-10-31T08:30:43;10.57;;;6.43;;
14080;SDS011;7116;52.152;5.392;2022-10-31T08:33:15;9.25;;;6.72;;
14080;SDS011;7116;52.152;5.392;2022-10-31T08:35:40;10.70;;;6.83;;
14080;SDS011;7116;52.152;5.392;2022-10-31T08:38:06;8.32;;;6.50;;
14080;SDS011;7116;52.152;5.392;2022-10-31T08:40:33;10.05;;;6.40;;
14080;SDS011;7116;52.152;5.392;2022-10-31T08:43:05;10.10;;;6.40;;
14080;SDS011;7116;52.152;5.392;2022-10-31T08:45:31;9.75;;;6.63;;
14080;SDS011;7116;52.152;5.392;2022-10-31T08:48:00;9.23;;;6.93;;
14080;SDS011;7116;52.152;5.392;2022-10-31T08:50:27;9.45;;;6.43;;
14080;SDS011;7116;52.152;5.392;2022-10-31T08:52:52;10.47;;;6.63;;
14080;SDS011;7116;52.152;5.392;2022-10-31T08:55:17;9.77;;;7.10;;
14080;SDS011;7116;52.152;5.392;2022-10-31T08:57:43;9.57;;;7.30;;
14080;SDS011;7116;52.152;5.392;2022-10-31T09:00:08;8.57;;;6.77;;
14080;SDS011;7116;52.152;5.392;2022-10-31T09:02:33;12.65;;;7.82;;
14080;SDS011;7116;52.152;5.392;2022-10-31T09:04:58;12.27;;;7.07;;
14080;SDS011;7116;52.152;5.392;2022-10-31T09:07:24;12.47;;;7.97;;
14080;SDS011;7116;52.152;5.392;2022-10-31T09:09:49;12.37;;;7.67;;
14080;SDS011;7116;52.152;5.392;2022-10-31T09:12:14;11.80;;;7.23;;
14080;SDS011;7116;52.152;5.392;2022-10-31T09:14:39;11.23;;;7.70;;
14080;SDS011;7116;52.152;5.392;2022-10-31T09:17:04;11.43;;;7.90;;
14080;SDS011;7116;52.152;5.392;2022-10-31T09:19:29;12.37;;;8.63;;
14080;SDS011;7116;52.152;5.392;2022-10-31T09:21:55;11.67;;;7.57;;
14080;SDS011;7116;52.152;5.392;2022-10-31T09:24:20;11.67;;;7.73;;
14080;SDS011;7116;52.152;5.392;2022-10-31T09:26:45;13.03;;;8.63;;
14080;SDS011;7116;52.152;5.392;2022-10-31T09:29:10;12.70;;;8.40;;
14080;SDS011;7116;52.152;5.392;2022-10-31T09:31:36;13.13;;;8.63;;
14080;SDS011;7116;52.152;5.392;2022-10-31T09:34:01;11.37;;;8.43;;
14080;SDS011;7116;52.152;5.392;2022-10-31T09:36:26;15.87;;;8.60;;
14080;SDS011;7116;52.152;5.392;2022-10-31T09:38:51;14.20;;;9.67;;
14080;SDS011;7116;52.152;5.392;2022-10-31T09:44:11;11.70;;;7.88;;
14080;SDS011;7116;52.152;5.392;2022-10-31T09:46:45;15.30;;;8.93;;
14080;SDS011;7116;52.152;5.392;2022-10-31T09:49:20;10.38;;;7.80;;
14080;SDS011;7116;52.152;5.392;2022-10-31T09:51:52;10.97;;;8.67;;
14080;SDS011;7116;52.152;5.392;2022-10-31T09:54:28;14.23;;;9.90;;
14080;SDS011;7116;52.152;5.392;2022-10-31T09:56:55;13.15;;;8.93;;
14080;SDS011;7116;52.152;5.392;2022-10-31T09:59:24;13.27;;;8.68;;
14080;SDS011;7116;52.152;5.392;2022-10-31T10:01:58;13.05;;;9.02;;
14080;SDS011;7116;52.152;5.392;2022-10-31T10:06:56;14.25;;;8.75;;
14080;SDS011;7116;52.152;5.392;2022-10-31T10:09:24;13.27;;;9.27;;
14080;SDS011;7116;52.152;5.392;2022-10-31T10:14:33;13.75;;;9.02;;
14080;SDS011;7116;52.152;5.392;2022-10-31T10:19:40;13.60;;;8.83;;
14080;SDS011;7116;52.152;5.392;2022-10-31T10:24:56;15.93;;;9.32;;
14080;SDS011;7116;52.152;5.392;2022-10-31T10:32:53;14.47;;;10.03;;
14080;SDS011;7116;52.152;5.392;2022-10-31T10:37:48;15.60;;;11.45;;
14080;SDS011;7116;52.152;5.392;2022-10-31T10:40:19;15.25;;;9.93;;
14080;SDS011;7116;52.152;5.392;2022-10-31T10:42:55;15.15;;;10.10;;
14080;SDS011;7116;52.152;5.392;2022-10-31T10:45:41;17.73;;;10.10;;
14080;SDS011;7116;52.152;5.392;2022-10-31T10:48:34;18.00;;;9.23;;
14080;SDS011;7116;52.152;5.392;2022-10-31T10:51:02;20.45;;;9.75;;
14080;SDS011;7116;52.152;5.392;2022-10-31T10:56:44;15.15;;;8.70;;
14080;SDS011;7116;52.152;5.392;2022-10-31T10:59:15;17.33;;;8.37;;
14080;SDS011;7116;52.152;5.392;2022-10-31T11:01:41;18.63;;;9.85;;
14080;SDS011;7116;52.152;5.392;2022-10-31T11:04:14;13.83;;;8.23;;
14080;SDS011;7116;52.152;5.392;2022-10-31T11:06:55;15.18;;;9.80;;
14080;SDS011;7116;52.152;5.392;2022-10-31T11:09:21;20.17;;;9.82;;
14080;SDS011;7116;52.152;5.392;2022-10-31T11:11:46;16.40;;;8.93;;
14080;SDS011;7116;52.152;5.392;2022-10-31T11:14:12;15.17;;;9.07;;
14080;SDS011;7116;52.152;5.392;2022-10-31T11:16:38;18.25;;;9.60;;
14080;SDS011;7116;52.152;5.392;2022-10-31T11:19:12;18.40;;;9.27;;
14080;SDS011;7116;52.152;5.392;2022-10-31T11:21:41;17.60;;;8.90;;
14080;SDS011;7116;52.152;5.392;2022-10-31T11:26:32;16.73;;;8.07;;
14080;SDS011;7116;52.152;5.392;2022-10-31T11:29:00;14.52;;;8.93;;
14080;SDS011;7116;52.152;5.392;2022-10-31T11:31:27;16.03;;;9.23;;
14080;SDS011;7116;52.152;5.392;2022-10-31T11:34:00;16.97;;;9.10;;
14080;SDS011;7116;52.152;5.392;2022-10-31T11:36:27;16.27;;;9.63;;
14080;SDS011;7116;52.152;5.392;2022-10-31T11:38:53;15.23;;;9.05;;
14080;SDS011;7116;52.152;5.392;2022-10-31T11:41:28;16.48;;;9.43;;
14080;SDS011;7116;52.152;5.392;2022-10-31T11:43:59;15.32;;;10.00;;
14080;SDS011;7116;52.152;5.392;2022-10-31T11:46:34;16.07;;;10.33;;
14080;SDS011;7116;52.152;5.392;2022-10-31T11:49:00;16.45;;;9.85;;
14080;SDS011;7116;52.152;5.392;2022-10-31T11:51:30;18.35;;;10.20;;
14080;SDS011;7116;52.152;5.392;2022-10-31T11:53:59;19.70;;;11.25;;
14080;SDS011;7116;52.152;5.392;2022-10-31T11:56:27;20.73;;;10.57;;
14080;SDS011;7116;52.152;5.392;2022-10-31T11:59:01;21.17;;;11.73;;
14080;SDS011;7116;52.152;5.392;2022-10-31T12:01:28;18.95;;;11.35;;
14080;SDS011;7116;52.152;5.392;2022-10-31T12:04:12;21.10;;;10.03;;
14080;SDS011;7116;52.152;5.392;2022-10-31T12:06:38;24.63;;;11.93;;
14080;SDS011;7116;52.152;5.392;2022-10-31T12:09:10;23.10;;;12.98;;
14080;SDS011;7116;52.152;5.392;2022-10-31T12:19:09;23.80;;;13.07;;
14080;SDS011;7116;52.152;5.392;2022-10-31T12:21:55;23.58;;;12.80;;
14080;SDS011;7116;52.152;5.392;2022-10-31T12:24:45;28.63;;;14.77;;
14080;SDS011;7116;52.152;5.392;2022-10-31T12:27:32;26.10;;;13.30;;
14080;SDS011;7116;52.152;5.392;2022-10-31T12:30:12;21.92;;;12.63;;
14080;SDS011;7116;52.152;5.392;2022-10-31T12:35:24;26.08;;;14.27;;
14080;SDS011;7116;52.152;5.392;2022-10-31T12:38:12;26.15;;;12.60;;
14080;SDS011;7116;52.152;5.392;2022-10-31T12:40:58;20.52;;;12.32;;
14080;SDS011;7116;52.152;5.392;2022-10-31T12:48:19;25.30;;;12.50;;
14080;SDS011;7116;52.152;5.392;2022-10-31T12:58:35;21.83;;;12.05;;
14080;SDS011;7116;52.152;5.392;2022-10-31T13:01:24;25.55;;;12.50;;
14080;SDS011;7116;52.152;5.392;2022-10-31T13:06:18;24.83;;;10.82;;
14080;SDS011;7116;52.152;5.392;2022-10-31T13:11:10;21.90;;;11.03;;
14080;SDS011;7116;52.152;5.392;2022-10-31T13:16:09;22.00;;;13.15;;
14080;SDS011;7116;52.152;5.392;2022-10-31T13:18:40;22.37;;;12.27;;
14080;SDS011;7116;52.152;5.392;2022-10-31T13:21:08;23.95;;;12.02;;
14080;SDS011;7116;52.152;5.392;2022-10-31T13:23:35;24.33;;;12.68;;
14080;SDS011;7116;52.152;5.392;2022-10-31T13:26:08;25.67;;;12.15;;
14080;SDS011;7116;52.152;5.392;2022-10-31T13:28:36;20.17;;;11.65;;
14080;SDS011;7116;52.152;5.392;2022-10-31T13:31:03;28.77;;;11.73;;
14080;SDS011;7116;52.152;5.392;2022-10-31T13:36:08;26.50;;;13.13;;
14080;SDS011;7116;52.152;5.392;2022-10-31T13:38:41;26.35;;;12.15;;
14080;SDS011;7116;52.152;5.392;2022-10-31T13:41:13;26.35;;;13.43;;
14080;SDS011;7116;52.152;5.392;2022-10-31T13:44:01;25.42;;;13.43;;
14080;SDS011;7116;52.152;5.392;2022-10-31T13:46:38;22.23;;;12.48;;
14080;SDS011;7116;52.152;5.392;2022-10-31T13:49:03;24.70;;;13.07;;
14080;SDS011;7116;52.152;5.392;2022-10-31T13:51:30;26.65;;;13.65;;
14080;SDS011;7116;52.152;5.392;2022-10-31T13:56:21;21.55;;;12.05;;
14080;SDS011;7116;52.152;5.392;2022-10-31T13:58:57;29.47;;;14.03;;
14080;SDS011;7116;52.152;5.392;2022-10-31T14:01:23;31.50;;;13.20;;
14080;SDS011;7116;52.152;5.392;2022-10-31T14:03:59;26.47;;;13.07;;
14080;SDS011;7116;52.152;5.392;2022-10-31T14:09:20;24.75;;;12.77;;
14080;SDS011;7116;52.152;5.392;2022-10-31T14:11:46;26.95;;;13.73;;
14080;SDS011;7116;52.152;5.392;2022-10-31T14:14:12;24.42;;;14.02;;
14080;SDS011;7116;52.152;5.392;2022-10-31T14:16:38;26.23;;;13.67;;
14080;SDS011;7116;52.152;5.392;2022-10-31T14:19:06;23.67;;;13.30;;
14080;SDS011;7116;52.152;5.392;2022-10-31T14:21:40;27.00;;;13.70;;
14080;SDS011;7116;52.152;5.392;2022-10-31T14:26:56;28.95;;;14.75;;
14080;SDS011;7116;52.152;5.392;2022-10-31T14:29:26;20.55;;;12.52;;
14080;SDS011;7116;52.152;5.392;2022-10-31T14:31:53;29.38;;;14.95;;
14080;SDS011;7116;52.152;5.392;2022-10-31T14:36:59;28.27;;;14.10;;
14080;SDS011;7116;52.152;5.392;2022-10-31T14:51:52;26.53;;;13.77;;
14080;SDS011;7116;52.152;5.392;2022-10-31T14:54:19;24.87;;;14.07;;
14080;SDS011;7116;52.152;5.392;2022-10-31T14:56:55;25.63;;;14.02;;
14080;SDS011;7116;52.152;5.392;2022-10-31T14:59:23;25.88;;;14.55;;
14080;SDS011;7116;52.152;5.392;2022-10-31T15:01:52;27.27;;;13.65;;
14080;SDS011;7116;52.152;5.392;2022-10-31T15:04:20;30.30;;;14.93;;
14080;SDS011;7116;52.152;5.392;2022-10-31T15:06:50;23.83;;;12.53;;
14080;SDS011;7116;52.152;5.392;2022-10-31T15:09:33;25.77;;;13.50;;
14080;SDS011;7116;52.152;5.392;2022-10-31T15:11:59;24.67;;;13.63;;
14080;SDS011;7116;52.152;5.392;2022-10-31T15:14:29;31.00;;;14.55;;
14080;SDS011;7116;52.152;5.392;2022-10-31T15:16:58;26.77;;;13.90;;
14080;SDS011;7116;52.152;5.392;2022-10-31T15:19:25;23.47;;;13.83;;
14080;SDS011;7116;52.152;5.392;2022-10-31T15:21:52;30.25;;;14.63;;
14080;SDS011;7116;52.152;5.392;2022-10-31T15:24:17;27.58;;;14.70;;
14080;SDS011;7116;52.152;5.392;2022-10-31T15:26:52;27.13;;;14.63;;
14080;SDS011;7116;52.152;5.392;2022-10-31T15:29:19;25.88;;;16.40;;
14080;SDS011;7116;52.152;5.392;2022-10-31T15:31:58;29.10;;;14.33;;
14080;SDS011;7116;52.152;5.392;2022-10-31T15:34:32;26.80;;;14.60;;
14080;SDS011;7116;52.152;5.392;2022-10-31T15:37:00;30.42;;;14.00;;
14080;SDS011;7116;52.152;5.392;2022-10-31T15:39:26;33.27;;;14.53;;
14080;SDS011;7116;52.152;5.392;2022-10-31T15:47:01;31.53;;;15.50;;
14080;SDS011;7116;52.152;5.392;2022-10-31T15:52:41;28.63;;;14.30;;
14080;SDS011;7116;52.152;5.392;2022-10-31T15:57:41;27.92;;;14.45;;
14080;SDS011;7116;52.152;5.392;2022-10-31T16:00:29;27.30;;;14.23;;
14080;SDS011;7116;52.152;5.392;2022-10-31T16:05:38;28.55;;;15.40;;
14080;SDS011;7116;52.152;5.392;2022-10-31T16:10:52;23.83;;;13.13;;
14080;SDS011;7116;52.152;5.392;2022-10-31T16:13:17;26.87;;;13.57;;
14080;SDS011;7116;52.152;5.392;2022-10-31T16:15:58;28.08;;;14.05;;
14080;SDS011;7116;52.152;5.392;2022-10-31T16:18:25;28.77;;;13.75;;
14080;SDS011;7116;52.152;5.392;2022-10-31T16:20:52;26.10;;;13.53;;
14080;SDS011;7116;52.152;5.392;2022-10-31T16:23:19;28.45;;;14.18;;
14080;SDS011;7116;52.152;5.392;2022-10-31T16:25:44;24.02;;;13.18;;
14080;SDS011;7116;52.152;5.392;2022-10-31T16:28:14;30.23;;;13.13;;
14080;SDS011;7116;52.152;5.392;2022-10-31T16:30:42;24.98;;;13.68;;
14080;SDS011;7116;52.152;5.392;2022-10-31T16:35:51;26.00;;;13.63;;
14080;SDS011;7116;52.152;5.392;2022-10-31T16:38:17;24.90;;;13.93;;
14080;SDS011;7116;52.152;5.392;2022-10-31T16:40:42;22.00;;;12.23;;
14080;SDS011;7116;52.152;5.392;2022-10-31T16:43:09;24.63;;;13.23;;
14080;SDS011;7116;52.152;5.392;2022-10-31T16:45:35;26.60;;;13.82;;
14080;SDS011;7116;52.152;5.392;2022-10-31T16:48:05;22.53;;;12.47;;
14080;SDS011;7116;52.152;5.392;2022-10-31T16:50:30;22.23;;;13.13;;
14080;SDS011;7116;52.152;5.392;2022-10-31T16:52:55;22.97;;;12.43;;
14080;SDS011;7116;52.152;5.392;2022-10-31T16:55:20;30.33;;;13.83;;
14080;SDS011;7116;52.152;5.392;2022-10-31T16:57:47;23.37;;;13.33;;
14080;SDS011;7116;52.152;5.392;2022-10-31T17:00:13;25.43;;;15.17;;
14080;SDS011;7116;52.152;5.392;2022-10-31T17:02:39;25.40;;;13.77;;